Time;durP1;ratioP1;P1;durP2;ratioP2;P2;SDS_P1;SDS_P2;PMS_P1;PMS_P2;Temp;Humidity;BMP_temperature;BMP_pressure;BME280_temperature;BME280_humidity;BME280_pressure;Samples;Min_cycle;Max_cycle;Signal;HPM_P1;HPM_P2
2022/11/11 00:01:54;;;;;;;12.50;11.37;;;;;;;7.48;100.00;-13566.97;5052887;28;20189;-61
2022/11/11 00:04:21;;;;;;;12.53;11.30;;;;;;;7.65;100.00;-14836.53;5052833;28;20189;-60
2022/11/11 00:06:49;;;;;;;16.40;12.53;;;;;;;7.65;100.00;-15153.00;5052786;28;20189;-59
2022/11/11 00:09:16;;;;;;;13.80;12.53;;;;;;;7.47;100.00;-15782.41;5053123;28;20193;-59
2022/11/11 00:11:43;;;;;;;17.57;12.80;;;;;;;7.73;100.00;-17053.63;5052592;28;20300;-59
2022/11/11 00:14:10;;;;;;;14.50;13.30;;;;;;;7.87;100.00;-18005.84;5052892;28;20186;-59
2022/11/11 00:25:06;;;;;;;14.40;12.90;;;;;;;7.78;100.00;-5960.84;5052772;28;20722;-60
2022/11/11 00:27:33;;;;;;;13.97;12.87;;;;;;;7.62;100.00;-3737.34;5052331;28;20185;-59
2022/11/11 00:30:00;;;;;;;13.73;12.57;;;;;;;7.65;100.00;-3102.00;5052327;28;20277;-59
2022/11/11 00:32:29;;;;;;;12.80;11.93;;;;;;;7.61;100.00;-1830.97;5052109;28;20228;-60
2022/11/11 00:37:47;;;;;;;13.27;12.17;;;;;;;7.48;100.00;-877.84;5052364;28;20187;-60
2022/11/11 00:40:14;;;;;;;11.27;10.30;;;;;;;7.49;100.00;-559.94;5052379;28;20185;-60
2022/11/11 00:42:41;;;;;;;12.40;11.17;;;;;;;7.47;100.00;-2149.00;5051896;28;20633;-60
2022/11/11 00:45:10;;;;;;;12.03;11.10;;;;;;;7.34;100.00;-4054.56;5051884;28;20560;-60
2022/11/11 00:53:12;;;;;;;13.67;10.63;;;;;;;7.22;100.00;-7544.00;5051785;28;20227;-60
2022/11/11 00:55:39;;;;;;;11.20;10.30;;;;;;;7.26;100.00;-8178.41;5051755;28;20276;-59
2022/11/11 00:58:06;;;;;;;11.77;10.97;;;;;;;7.16;100.00;-7543.50;5051713;28;20181;-59
2022/11/11 01:00:33;;;;;;;10.27;9.57;;;;;;;6.95;100.00;-7542.03;5051774;28;20196;-59
2022/11/11 01:03:00;;;;;;;10.20;9.43;;;;;;;7.17;100.00;-8494.56;5052036;28;20651;-60
2022/11/11 01:05:27;;;;;;;10.27;9.50;;;;;;;7.31;100.00;-9129.81;5051925;28;20185;-59
2022/11/11 01:07:54;;;;;;;10.10;9.23;;;;;;;7.32;100.00;-9446.81;5051686;28;20197;-60
2022/11/11 01:10:38;;;;;;;10.53;9.53;;;;;;;7.18;100.00;-9762.22;5051823;28;20648;-60
2022/11/11 01:13:13;;;;;;;10.30;9.70;;;;;;;7.26;100.00;-10079.94;5051394;28;20209;-59
2022/11/11 01:15:41;;;;;;;10.63;9.77;;;;;;;7.22;100.00;-10396.28;5051502;28;20192;-59
2022/11/11 01:18:09;;;;;;;11.50;10.33;;;;;;;6.88;100.00;-10075.69;5051380;28;20192;-59
2022/11/11 01:20:36;;;;;;;12.70;11.80;;;;;;;7.12;100.00;-11345.19;5051509;28;20268;-60
2022/11/11 01:23:04;;;;;;;36.60;27.40;;;;;;;7.15;100.00;-12295.50;5051728;28;20185;-60
2022/11/11 01:25:35;;;;;;;25.23;22.90;;;;;;;7.02;100.00;-12926.50;5051706;28;20204;-59
2022/11/11 01:28:01;;;;;;;68.33;39.20;;;;;;;7.08;100.00;-13876.63;5051817;28;20624;-58
2022/11/11 01:30:28;;;;;;;179.10;53.10;;;;;;;7.12;100.00;-14193.72;5051547;28;20195;-58
2022/11/11 01:32:55;;;;;;;240.63;73.40;;;;;;;6.97;100.00;-13874.78;5052585;28;20579;-58
2022/11/11 01:35:22;;;;;;;395.03;95.17;;;;;;;6.93;100.00;-13557.69;5051837;28;20219;-58
2022/11/11 01:37:49;;;;;;;416.50;107.10;;;;;;;6.81;100.00;-12923.13;5051652;28;20617;-57
2022/11/11 01:40:17;;;;;;;340.13;101.57;;;;;;;6.76;100.00;-13871.09;5051910;28;20537;-57
2022/11/11 01:42:49;;;;;;;358.43;97.23;;;;;;;6.83;100.00;-14188.56;5051490;28;20188;-58
2022/11/11 01:45:46;;;;;;;344.00;93.10;;;;;;;6.67;100.00;-14817.88;5051261;28;20215;-58
2022/11/11 01:51:05;;;;;;;402.10;104.37;;;;;;;6.36;100.00;-16707.13;5051904;28;20180;-59
2022/11/11 01:53:32;;;;;;;296.70;98.97;;;;;;;6.47;100.00;-17025.22;5051700;28;20609;-59
2022/11/11 01:56:01;;;;;;;213.80;98.50;;;;;;;6.38;100.00;-17654.69;5051169;28;20190;-59
2022/11/11 01:58:30;;;;;;;341.40;90.90;;;;;;;6.40;100.00;-17970.69;5054259;28;20640;-58
2022/11/11 02:00:58;;;;;;;331.87;83.03;;;;;;;6.46;100.00;-17972.13;5055215;28;20189;-58
2022/11/11 02:03:28;;;;;;;222.27;75.70;;;;;;;6.40;100.00;-17970.69;5055909;28;20192;-57
2022/11/11 02:05:56;;;;;;;325.03;77.97;;;;;;;6.43;100.00;-17971.41;5055547;28;20657;-58
2022/11/11 02:08:35;;;;;;;297.43;72.00;;;;;;;6.46;100.00;-17656.47;5055668;28;20560;-59
2022/11/11 02:11:05;;;;;;;178.63;60.93;;;;;;;6.39;100.00;-17654.78;5055137;28;20243;-58
2022/11/11 02:16:22;;;;;;;109.83;55.07;;;;;;;6.47;100.00;-17025.13;5055241;28;20197;-58
2022/11/11 02:18:49;;;;;;;140.43;58.33;;;;;;;6.43;100.00;-17024.31;5055161;28;20637;-58
2022/11/11 02:21:24;;;;;;;131.43;58.80;;;;;;;6.54;100.00;-17026.81;5037575;28;20621;-58
2022/11/11 02:24:02;;;;;;;92.07;59.10;;;;;;;6.34;100.00;-16706.56;5055027;28;20185;-58
2022/11/11 02:26:32;;;;;;;210.43;68.80;;;;;;;6.22;100.00;-17650.75;5054947;28;20185;-57
2022/11/11 02:29:01;;;;;;;180.07;68.20;;;;;;;6.23;100.00;-17651.00;5037081;28;20236;-59
2022/11/11 02:31:29;;;;;;;297.83;74.83;;;;;;;6.23;100.00;-17651.00;5054403;28;20241;-58
2022/11/11 02:33:56;;;;;;;251.90;72.50;;;;;;;6.21;100.00;-17650.50;5055208;28;20529;-57
2022/11/11 02:36:24;;;;;;;339.07;76.13;;;;;;;6.23;100.00;-17651.00;5055026;28;20212;-57
2022/11/11 02:38:51;;;;;;;223.93;74.23;;;;;;;6.23;100.00;-17651.09;5054609;28;20193;-58
2022/11/11 02:44:06;;;;;;;531.80;94.17;;;;;;;6.13;100.00;-17648.63;5028666;28;20247;-58
2022/11/11 02:46:33;;;;;;;354.70;85.23;;;;;;;6.07;100.00;-17647.19;5054548;28;20557;-58
2022/11/11 02:49:00;;;;;;;324.37;86.70;;;;;;;6.22;100.00;-17335.28;5054654;28;20186;-58
2022/11/11 02:51:27;;;;;;;1199.30;163.47;;;;;;;6.29;100.00;-17021.25;5054732;28;20571;-58
2022/11/11 02:54:01;;;;;;;791.63;133.97;;;;;;;6.21;100.00;-17019.31;5054282;28;20201;-57
2022/11/11 02:59:14;;;;;;;816.33;147.73;;;;;;;6.31;100.00;-17021.59;5054262;28;20187;-58
2022/11/11 03:01:41;;;;;;;775.17;150.90;;;;;;;6.32;100.00;-17021.81;5054094;28;20700;-58
2022/11/11 03:04:08;;;;;;;1084.47;181.47;;;;;;;6.43;100.00;-17024.44;5054133;28;20190;-58
2022/11/11 03:06:35;;;;;;;1065.50;182.70;;;;;;;6.49;100.00;-16709.91;5054098;28;20191;-59
2022/11/11 03:09:02;;;;;;;1283.33;202.80;;;;;;;6.55;100.00;-16711.25;5053739;28;20279;-57
2022/11/11 03:11:30;;;;;;;1618.47;247.90;;;;;;;6.53;100.00;-16710.78;5054216;28;20189;-58
2022/11/11 03:13:58;;;;;;;1378.97;230.63;;;;;;;6.44;100.00;-16708.78;5053952;28;20208;-58
2022/11/11 03:19:10;;;;;;;1375.77;219.33;;;;;;;6.64;100.00;-16713.13;5053994;28;20253;-59
2022/11/11 03:21:38;;;;;;;1675.60;268.40;;;;;;;6.61;100.00;-16712.56;5053741;28;20567;-58
2022/11/11 03:24:06;;;;;;;1486.47;264.47;;;;;;;6.49;100.00;-16709.91;5053644;28;20190;-58
2022/11/11 03:26:34;;;;;;;1596.83;256.90;;;;;;;6.76;100.00;-17031.72;5053725;28;20193;-57
2022/11/11 03:29:01;;;;;;;1428.90;242.33;;;;;;;6.84;100.00;-17033.66;5054001;28;20640;-58
2022/11/11 03:31:28;;;;;;;973.93;198.73;;;;;;;6.80;100.00;-16716.69;5054161;28;20231;-58
2022/11/11 03:33:55;;;;;;;1606.37;255.80;;;;;;;6.85;100.00;-17033.75;5053562;28;20209;-57
2022/11/11 03:38:14;;;;;;;1449.93;236.40;;;;;;;6.99;100.00;-17036.81;5053513;28;20197;-57
2022/11/11 03:39:08;;;;;;;1175.90;201.73;;;;;;;6.94;100.00;-16719.78;5053439;28;20254;-57
2022/11/11 03:41:37;;;;;;;1452.57;226.23;;;;;;;6.96;100.00;-16720.13;5053597;28;20197;-58
2022/11/11 03:44:06;;;;;;;1517.07;233.17;;;;;;;6.93;100.00;-16719.56;5053522;28;20551;-58
2022/11/11 03:46:33;;;;;;;1151.10;209.13;;;;;;;6.95;100.00;-16403.84;5053676;28;20502;-58
2022/11/11 03:49:00;;;;;;;1320.10;222.37;;;;;;;7.01;100.00;-16721.22;5053815;28;20280;-58
2022/11/11 03:51:27;;;;;;;1221.07;217.50;;;;;;;6.96;100.00;-16720.13;5053603;28;20559;-58
2022/11/11 03:53:54;;;;;;;1317.33;210.37;;;;;;;6.98;100.00;-16720.69;5053318;28;20612;-58
2022/11/11 03:56:21;;;;;;;1399.57;233.17;;;;;;;7.01;100.00;-16405.16;5053480;28;20541;-58
2022/11/11 03:58:49;;;;;;;1489.67;232.37;;;;;;;7.13;100.00;-16407.88;5053101;28;20192;-57
2022/11/11 04:12:10;;;;;;;946.00;173.90;;;;;;;7.05;100.00;-15773.72;5052871;28;20236;-58
2022/11/11 04:17:23;;;;;;;675.30;136.40;;;;;;;6.91;100.00;-15454.81;5053487;28;20181;-58
2022/11/11 04:22:40;;;;;;;228.77;90.57;;;;;;;6.77;100.00;-15452.09;5052975;28;20227;-57
2022/11/11 04:29:27;;;;;;;179.83;80.67;;;;;;;6.56;100.00;-15763.81;5052910;28;20192;-58
2022/11/11 04:30:39;;;;;;;141.77;76.07;;;;;;;6.79;100.00;-15768.56;5052300;28;20197;-58
2022/11/11 04:33:06;;;;;;;116.67;70.40;;;;;;;6.61;100.00;-15448.88;5052531;28;20699;-57
2022/11/11 04:35:33;;;;;;;111.80;69.53;;;;;;;6.74;100.00;-15767.53;5052608;28;20185;-58
2022/11/11 04:43:25;;;;;;;106.00;62.77;;;;;;;6.77;100.00;-15768.16;5036996;28;20702;-58
2022/11/11 04:45:52;;;;;;;91.77;60.80;;;;;;;6.85;100.00;-15769.81;5052443;28;20189;-58
2022/11/11 04:48:19;;;;;;;97.63;60.37;;;;;;;6.87;100.00;-16086.28;5051996;28;20192;-58
2022/11/11 04:50:46;;;;;;;102.37;57.93;;;;;;;6.91;100.00;-16086.94;5052166;28;20650;-57
2022/11/11 04:53:15;;;;;;;95.87;59.00;;;;;;;6.85;100.00;-16085.88;5052469;28;20213;-57
2022/11/11 04:58:29;;;;;;;81.33;54.30;;;;;;;6.89;100.00;-15770.53;5052270;28;20180;-58
2022/11/11 05:00:58;;;;;;;89.23;53.80;;;;;;;6.78;100.00;-15768.34;5052324;28;20204;-58
2022/11/11 05:03:24;;;;;;;85.60;54.27;;;;;;;6.90;100.00;-15770.72;5052171;28;20200;-58
2022/11/11 05:08:55;;;;;;;88.33;53.07;;;;;;;7.20;100.00;-16093.19;5052610;28;20177;-58
2022/11/11 05:11:24;;;;;;;85.87;52.63;;;;;;;7.16;100.00;-15776.00;5051979;28;20195;-58
2022/11/11 05:22:27;;;;;;;100.27;53.83;;;;;;;7.62;100.00;-16418.28;4991124;28;20233;-57
2022/11/11 05:27:39;;;;;;;89.20;51.90;;;;;;;7.56;100.00;-16417.09;5026022;28;20200;-58
2022/11/11 05:30:08;;;;;;;87.13;52.60;;;;;;;7.73;100.00;-16420.75;5051667;28;20178;-57
2022/11/11 05:32:36;;;;;;;81.30;50.93;;;;;;;7.90;100.00;-16424.22;5051184;28;20241;-57
2022/11/11 05:35:05;;;;;;;84.53;48.80;;;;;;;8.11;100.00;-16745.41;5051742;28;20189;-58
2022/11/11 05:37:32;;;;;;;77.47;48.30;;;;;;;8.23;100.00;-16748.19;5051910;28;20263;-58
2022/11/11 05:39:59;;;;;;;77.13;47.07;;;;;;;8.40;100.00;-16751.84;5052396;28;20192;-58
2022/11/11 05:42:27;;;;;;;78.50;47.97;;;;;;;8.50;100.00;-17070.88;5051825;28;20219;-59
2022/11/11 05:44:53;;;;;;;79.57;45.73;;;;;;;8.64;100.00;-17073.94;5051719;28;20625;-58
2022/11/11 05:47:20;;;;;;;81.83;46.97;;;;;;;8.75;100.00;-17393.22;5051699;28;20201;-58
2022/11/11 05:49:49;;;;;;;87.30;50.63;;;;;;;8.92;100.00;-17397.16;5051430;28;20587;-59
2022/11/11 05:52:17;;;;;;;94.53;51.23;;;;;;;8.76;100.00;-17710.34;5051423;28;20185;-57
2022/11/11 05:54:44;;;;;;;89.53;51.00;;;;;;;9.00;100.00;-18033.00;5051400;28;20181;-58
2022/11/11 05:57:11;;;;;;;81.27;46.60;;;;;;;9.12;100.00;-17718.97;5051795;28;20218;-58
2022/11/11 05:59:38;;;;;;;66.03;41.60;;;;;;;9.29;100.00;-17405.63;5051641;28;20211;-58
2022/11/11 06:02:05;;;;;;;49.07;33.87;;;;;;;9.42;100.00;-17408.75;5051933;28;20200;-59
2022/11/11 06:04:33;;;;;;;57.17;35.47;;;;;;;9.56;100.00;-17411.88;5051304;28;20182;-58
2022/11/11 06:07:04;;;;;;;54.33;32.97;;;;;;;9.68;100.00;-17414.66;5051346;28;20219;-59
2022/11/11 06:09:31;;;;;;;50.97;33.40;;;;;;;9.78;100.00;-16464.59;5051247;28;20277;-58
2022/11/11 06:11:58;;;;;;;49.67;34.03;;;;;;;9.89;100.00;-15196.34;5051326;28;20185;-55
2022/11/11 06:14:25;;;;;;;50.93;32.93;;;;;;;9.91;100.00;-14243.53;5051133;28;20209;-54
2022/11/11 06:16:51;;;;;;;60.07;31.60;;;;;;;9.87;100.00;-14878.38;5051340;28;20185;-54
2022/11/11 06:19:18;;;;;;;58.47;30.70;;;;;;;9.90;100.00;-15196.66;5051145;28;20190;-54
2022/11/11 06:21:57;;;;;;;62.60;32.57;;;;;;;9.90;100.00;-16467.19;5050920;28;20244;-54
2022/11/11 06:24:26;;;;;;;59.87;34.37;;;;;;;9.92;100.00;-17102.72;5051374;28;20193;-52
2022/11/11 06:26:52;;;;;;;66.50;37.23;;;;;;;9.96;100.00;-17738.53;5051244;28;20561;-53
2022/11/11 06:29:18;;;;;;;68.30;37.77;;;;;;;10.07;100.00;-18058.63;5050920;28;20196;-51
2022/11/11 06:31:45;;;;;;;77.57;40.20;;;;;;;10.27;100.00;-18063.34;5033611;28;20233;-51
2022/11/11 06:34:12;;;;;;;74.93;41.30;;;;;;;10.34;100.00;-17112.13;5051071;28;20210;-57
2022/11/11 06:36:39;;;;;;;78.73;42.47;;;;;;;10.45;100.00;-14889.31;5051382;28;20631;-57
2022/11/11 06:39:06;;;;;;;74.20;43.13;;;;;;;10.50;100.00;-14254.13;5050940;28;20539;-59
2022/11/11 06:41:34;;;;;;;71.93;39.87;;;;;;;10.62;100.00;-14574.25;5050946;28;20273;-59
2022/11/11 06:44:01;;;;;;;59.57;37.33;;;;;;;10.67;100.00;-14257.09;5053127;28;20705;-59
2022/11/11 06:46:29;;;;;;;62.63;33.33;;;;;;;10.62;100.00;-13937.94;5055676;28;20284;-59
2022/11/11 06:48:56;;;;;;;52.27;31.50;;;;;;;10.85;100.00;-13941.97;5055299;28;20189;-57
2022/11/11 06:51:23;;;;;;;48.33;30.10;;;;;;;10.98;100.00;-13307.50;5054431;28;20185;-58
2022/11/11 06:53:50;;;;;;;43.73;29.87;;;;;;;11.08;100.00;-12671.97;5054100;28;20683;-58
2022/11/11 06:56:17;;;;;;;73.57;31.83;;;;;;;11.18;100.00;-12036.31;5054593;28;20213;-59
2022/11/11 06:58:45;;;;;;;66.23;32.73;;;;;;;11.18;100.00;-12036.25;5054654;28;20185;-58
2022/11/11 07:01:13;;;;;;;64.00;35.10;;;;;;;11.20;100.00;-12673.81;5054199;28;20232;-58
2022/11/11 07:03:40;;;;;;;76.40;40.60;;;;;;;11.13;100.00;-12672.81;5053694;28;20181;-58
2022/11/11 07:06:11;;;;;;;63.07;36.17;;;;;;;11.21;100.00;-12355.41;5053776;28;20255;-59
2022/11/11 07:08:43;;;;;;;70.10;36.47;;;;;;;11.37;100.00;-12038.97;5054455;28;20225;-57
2022/11/11 07:11:10;;;;;;;70.60;35.63;;;;;;;11.48;100.00;-11083.91;5053891;28;20645;-59
2022/11/11 07:13:37;;;;;;;62.80;33.53;;;;;;;11.60;100.00;-10766.53;5054001;28;20232;-58
2022/11/11 07:16:06;;;;;;;59.47;32.90;;;;;;;11.61;100.00;-10128.50;5053482;28;20185;-59
2022/11/11 07:18:33;;;;;;;43.90;30.40;;;;;;;11.77;100.00;-10449.44;5053596;28;20205;-58
2022/11/11 07:21:00;;;;;;;42.43;30.00;;;;;;;11.79;100.00;-9492.16;5035473;28;20186;-58
2022/11/11 07:23:27;;;;;;;52.23;32.07;;;;;;;12.00;100.00;-8855.53;5053903;28;20546;-57
2022/11/11 07:25:55;;;;;;;56.17;31.93;;;;;;;12.04;100.00;-5660.25;5053458;28;20285;-57
2022/11/11 07:28:23;;;;;;;62.13;34.90;;;;;;;12.05;100.00;-1821.28;5053683;28;20192;-59
2022/11/11 07:30:50;;;;;;;54.17;35.20;;;;;;;12.22;100.00;421.22;5053323;28;20276;-57
2022/11/11 07:33:19;;;;;;;58.47;35.87;;;;;;;12.43;100.00;3950.00;5052984;28;20232;-57
2022/11/11 07:35:46;;;;;;;69.40;37.20;;;;;;;12.36;100.00;9086.59;5053128;28;20190;-58
2022/11/11 07:38:13;;;;;;;58.03;37.83;;;;;;;12.63;100.00;11986.31;5053337;28;20194;-58
2022/11/11 07:40:39;;;;;;;66.03;38.43;;;;;;;12.79;100.00;13599.84;5053325;28;20632;-58
2022/11/11 07:43:06;;;;;;;68.20;40.30;;;;;;;12.90;100.00;18114.44;5052952;28;20201;-58
2022/11/11 07:45:33;;;;;;;64.63;39.43;;;;;;;12.93;100.00;24248.88;5053316;28;20232;-58
2022/11/11 07:48:00;;;;;;;58.50;39.20;;;;;;;13.02;100.00;25868.81;5053620;28;20286;-58
2022/11/11 07:50:29;;;;;;;70.30;40.20;;;;;;;12.96;100.00;26836.16;5053779;28;20190;-59
2022/11/11 07:52:56;;;;;;;79.37;40.33;;;;;;;13.11;100.00;28137.31;5053008;28;20185;-56
2022/11/11 07:55:23;;;;;;;76.03;42.33;;;;;;;13.06;100.00;25224.38;5052669;28;20190;-58
2022/11/11 07:57:52;;;;;;;67.43;41.73;;;;;;;13.19;100.00;25877.13;5035088;28;20273;-59
2022/11/11 08:00:19;;;;;;;76.73;41.10;;;;;;;13.38;100.00;26209.19;5072806;28;20538;-58
2022/11/11 08:02:49;;;;;;;95.20;43.77;;;;;;;13.52;100.00;31721.59;5072953;28;20181;-59
2022/11/11 08:05:16;;;;;;;76.50;43.00;;;;;;;14.05;100.00;41173.03;5072825;28;20189;-58
2022/11/11 08:07:44;;;;;;;73.47;42.23;;;;;;;14.45;100.00;77200.75;5073374;28;20543;-58
2022/11/11 08:10:12;;;;;;;61.17;40.87;;;;;;;14.77;100.00;105336.97;5072712;28;20224;-59
2022/11/11 08:15:23;;;;;;;65.67;40.77;;;;;;;14.92;100.00;134362.22;5072674;28;20188;-58
2022/11/11 08:17:50;;;;;;;83.50;42.10;;;;;;;14.83;100.00;133672.53;5072750;28;20207;-59
2022/11/11 08:20:17;;;;;;;74.20;42.67;;;;;;;15.01;100.00;135051.13;5072962;28;20193;-58
2022/11/11 08:22:45;;;;;;;70.80;44.50;;;;;;;15.26;100.00;149080.22;5073447;28;20189;-58
2022/11/11 08:25:13;;;;;;;70.93;43.13;;;;;;;15.59;100.00;149956.19;5071885;28;20185;-59
2022/11/11 08:27:40;;;;;;;72.20;41.70;;;;;;;15.90;100.00;150034.88;5072324;28;20192;-58
2022/11/11 08:30:09;;;;;;;82.40;42.57;;;;;;;16.00;100.00;150060.25;5072247;28;20196;-58
2022/11/11 08:32:36;;;;;;;70.07;40.23;;;;;;;16.03;100.00;150065.34;5058226;28;20237;-58
2022/11/11 08:35:03;;;;;;;66.90;39.73;;;;;;;16.11;100.00;150085.66;5052100;28;20209;-59
2022/11/11 08:37:30;;;;;;;78.23;39.00;;;;;;;16.30;100.00;150133.88;5052090;28;20190;-59
2022/11/11 08:39:58;;;;;;;71.93;38.37;;;;;;;16.60;100.00;150208.84;5051981;28;20224;-57
2022/11/11 08:42:28;;;;;;;71.63;39.10;;;;;;;16.56;100.00;150199.91;5051764;28;20208;-58
2022/11/11 08:44:54;;;;;;;60.97;37.70;;;;;;;16.45;100.00;150172.00;5052626;28;20186;-58
2022/11/11 08:47:23;;;;;;;50.30;36.63;;;;;;;16.19;100.00;150105.97;5052363;28;20648;-58
2022/11/11 08:49:50;;;;;;;59.27;36.53;;;;;;;16.22;100.00;150113.56;5052034;28;20576;-58
2022/11/11 08:52:17;;;;;;;60.70;36.47;;;;;;;16.00;100.00;150058.97;5052094;28;20536;-58
2022/11/11 08:54:44;;;;;;;66.23;36.57;;;;;;;15.95;100.00;150046.31;5052076;28;20590;-58
2022/11/11 08:57:13;;;;;;;64.37;36.47;;;;;;;15.99;100.00;150057.75;5052310;28;20189;-59
2022/11/11 08:59:41;;;;;;;67.93;35.53;;;;;;;15.79;100.00;150006.94;5052056;28;20272;-58
2022/11/11 09:02:11;;;;;;;68.33;36.20;;;;;;;15.72;100.00;149987.91;5051550;28;20189;-59
2022/11/11 09:04:38;;;;;;;74.77;36.20;;;;;;;15.70;100.00;149984.09;5052207;28;20189;-58
2022/11/11 09:07:05;;;;;;;66.83;36.17;;;;;;;15.69;100.00;149980.31;5051236;28;20185;-59
2022/11/11 09:09:32;;;;;;;61.73;36.70;;;;;;;15.83;100.00;150015.81;5051525;28;20188;-59
2022/11/11 09:11:59;;;;;;;76.80;34.23;;;;;;;15.98;100.00;150055.19;5051938;28;20193;-58
2022/11/11 09:14:27;;;;;;;66.40;34.57;;;;;;;16.05;100.00;150070.41;5051653;28;20209;-59
2022/11/11 09:16:54;;;;;;;58.23;33.40;;;;;;;15.91;100.00;150036.16;5051808;28;20185;-58
2022/11/11 09:19:21;;;;;;;63.90;33.73;;;;;;;15.82;100.00;150014.59;5051659;28;20196;-58
2022/11/11 09:21:48;;;;;;;53.70;34.23;;;;;;;15.69;100.00;149981.59;5051564;28;20647;-58
2022/11/11 09:24:15;;;;;;;49.27;31.27;;;;;;;15.61;100.00;149961.28;5034058;28;20568;-59
2022/11/11 09:26:42;;;;;;;62.10;32.47;;;;;;;15.44;100.00;149918.09;5050954;28;20197;-57
2022/11/11 09:29:09;;;;;;;48.87;30.50;;;;;;;15.24;100.00;149867.31;5051125;28;20221;-59
2022/11/11 09:31:39;;;;;;;55.80;31.40;;;;;;;15.42;100.00;149913.00;5056744;28;20239;-57
2022/11/11 09:34:06;;;;;;;50.23;31.87;;;;;;;15.34;100.00;149893.97;5071845;28;20559;-59
2022/11/11 09:36:33;;;;;;;71.17;32.17;;;;;;;15.39;100.00;149687.25;5071850;28;20184;-58
2022/11/11 09:39:03;;;;;;;47.20;30.73;;;;;;;15.35;100.00;149896.53;5071613;28;20181;-59
2022/11/11 09:41:44;;;;;;;67.10;31.37;;;;;;;15.49;100.00;149930.75;5071352;28;20183;-58
2022/11/11 09:44:26;;;;;;;56.90;30.03;;;;;;;15.36;100.00;149897.78;5071668;28;20184;-58
2022/11/11 09:47:02;;;;;;;54.13;31.40;;;;;;;15.36;100.00;149897.78;5071741;28;20287;-59
2022/11/11 09:49:42;;;;;;;56.50;32.23;;;;;;;15.32;100.00;149887.66;5071375;28;20659;-58
2022/11/11 09:52:14;;;;;;;58.67;33.47;;;;;;;15.27;100.00;149874.94;5071383;28;20540;-58
2022/11/11 09:54:46;;;;;;;53.43;32.73;;;;;;;15.27;100.00;149874.94;5071137;28;20208;-57
2022/11/11 09:57:20;;;;;;;53.83;31.13;;;;;;;15.17;100.00;146603.84;5071283;28;20188;-59
2022/11/11 09:59:51;;;;;;;66.63;32.70;;;;;;;15.29;100.00;146355.38;5071365;28;20191;-58
2022/11/11 10:02:31;;;;;;;61.40;33.57;;;;;;;15.36;100.00;149897.78;5071157;28;20185;-60
2022/11/11 10:05:05;;;;;;;48.63;32.83;;;;;;;15.51;100.00;149935.88;5071754;28;20200;-58
2022/11/11 10:07:37;;;;;;;78.87;33.37;;;;;;;15.65;100.00;149971.44;5071569;28;20188;-58
2022/11/11 10:10:14;;;;;;;68.57;35.67;;;;;;;15.81;100.00;150012.03;5071109;28;20207;-58
2022/11/11 10:12:47;;;;;;;66.10;35.53;;;;;;;15.98;100.00;150053.94;5070888;28;20271;-58
2022/11/11 10:15:15;;;;;;;62.93;37.20;;;;;;;16.03;100.00;150065.34;5071489;28;20208;-57
2022/11/11 10:17:54;;;;;;;58.10;36.47;;;;;;;16.04;100.00;150069.13;5071120;28;20212;-58
2022/11/11 10:20:26;;;;;;;58.90;36.37;;;;;;;16.03;100.00;150066.63;5075090;28;20587;-58
2022/11/11 10:23:01;;;;;;;60.33;36.30;;;;;;;16.20;100.00;150109.78;5075572;28;20200;-58
2022/11/11 10:25:28;;;;;;;59.17;36.77;;;;;;;16.15;100.00;150097.09;5068294;28;20551;-58
2022/11/11 10:27:59;;;;;;;57.43;36.80;;;;;;;16.31;100.00;150136.44;5075189;28;20185;-58
2022/11/11 10:30:29;;;;;;;59.37;36.10;;;;;;;16.39;100.00;150156.72;5075129;28;20532;-58
2022/11/11 10:33:00;;;;;;;60.27;35.63;;;;;;;16.39;100.00;150156.72;5074356;28;20233;-57
2022/11/11 10:35:29;;;;;;;57.27;35.00;;;;;;;16.46;100.00;150174.53;5074774;28;20650;-57
2022/11/11 10:38:04;;;;;;;55.37;35.07;;;;;;;16.49;100.00;150182.16;5057660;28;20199;-58
2022/11/11 10:40:40;;;;;;;62.27;35.03;;;;;;;16.38;100.00;150154.19;5075180;28;20246;-57
2022/11/11 10:43:19;;;;;;;54.93;35.70;;;;;;;16.23;100.00;150116.13;5074386;28;20192;-57
2022/11/11 10:45:54;;;;;;;56.83;34.93;;;;;;;16.11;100.00;150085.66;5074998;28;20288;-59
2022/11/11 10:48:31;;;;;;;63.23;36.23;;;;;;;16.14;100.00;150094.53;5074021;28;20176;-57
2022/11/11 10:51:03;;;;;;;58.70;36.53;;;;;;;15.92;100.00;150039.94;5074273;28;20271;-58
2022/11/11 10:53:37;;;;;;;49.70;34.80;;;;;;;15.98;100.00;150055.19;5075085;28;20184;-59
2022/11/11 10:56:11;;;;;;;59.57;36.47;;;;;;;15.91;100.00;150037.41;5073217;28;20212;-59
2022/11/11 10:58:44;;;;;;;61.83;39.53;;;;;;;16.02;100.00;150062.81;5074802;28;20189;-59
2022/11/11 11:01:20;;;;;;;60.37;37.03;;;;;;;15.95;100.00;150047.56;5073983;28;20216;-59
2022/11/11 11:03:55;;;;;;;62.10;35.70;;;;;;;16.07;100.00;150076.78;5074159;28;20232;-57
2022/11/11 11:06:25;;;;;;;55.97;36.20;;;;;;;16.01;100.00;150061.53;5074257;28;20555;-58
2022/11/11 11:08:57;;;;;;;59.53;35.80;;;;;;;16.02;100.00;150062.81;5074169;28;20574;-58
2022/11/11 11:11:30;;;;;;;56.27;35.20;;;;;;;15.99;100.00;150056.47;5074975;28;20191;-59
2022/11/11 11:14:01;;;;;;;55.87;35.20;;;;;;;15.93;100.00;150042.50;5073873;28;20200;-58
2022/11/11 11:16:33;;;;;;;53.17;34.70;;;;;;;15.83;100.00;150017.09;5056132;28;20239;-58
2022/11/11 11:19:19;;;;;;;53.93;34.27;;;;;;;15.89;100.00;150032.34;5074022;28;20196;-58
2022/11/11 11:21:50;;;;;;;54.03;35.10;;;;;;;15.70;100.00;149984.09;5073800;28;20192;-57
2022/11/11 11:24:22;;;;;;;63.13;34.83;;;;;;;15.70;100.00;149982.84;5074111;28;20204;-57
2022/11/11 11:26:51;;;;;;;53.70;34.93;;;;;;;15.77;100.00;150000.63;5073504;28;20188;-57
2022/11/11 11:29:26;;;;;;;58.60;34.97;;;;;;;15.81;100.00;150010.75;5073454;28;20185;-57
2022/11/11 11:31:54;;;;;;;53.13;36.87;;;;;;;15.70;100.00;149984.09;5073406;28;20239;-57
2022/11/11 11:34:41;;;;;;;59.43;36.10;;;;;;;15.76;100.00;149999.34;5073590;28;20300;-58
2022/11/11 11:37:08;;;;;;;61.60;36.10;;;;;;;15.75;100.00;149995.50;5073893;28;20188;-58
2022/11/11 11:39:38;;;;;;;54.50;36.90;;;;;;;15.54;100.00;149943.50;5072196;28;20296;-58
2022/11/11 11:42:06;;;;;;;56.87;40.20;;;;;;;15.64;100.00;149967.63;5073549;28;20234;-59
2022/11/11 11:44:34;;;;;;;60.73;38.70;;;;;;;15.62;100.00;149962.50;5073149;28;20185;-58
2022/11/11 11:47:22;;;;;;;64.63;38.07;;;;;;;15.72;100.00;149987.91;5073583;28;20197;-58
2022/11/11 11:50:14;;;;;;;86.27;54.60;;;;;;;15.77;100.00;150001.88;5072946;28;20184;-58
2022/11/11 11:52:53;;;;;;;72.90;42.73;;;;;;;15.56;100.00;149947.31;5073474;28;20650;-58
2022/11/11 11:55:24;;;;;;;59.13;37.83;;;;;;;15.65;100.00;149971.44;5072940;28;20295;-57
2022/11/11 11:58:03;;;;;;;66.37;39.20;;;;;;;15.67;100.00;149975.22;5072846;28;20189;-58
2022/11/11 12:00:35;;;;;;;60.23;38.80;;;;;;;15.69;100.00;149981.59;5072927;28;20185;-58
2022/11/11 12:03:18;;;;;;;61.60;39.20;;;;;;;15.62;100.00;149963.78;5073409;28;20688;-58
2022/11/11 12:05:49;;;;;;;64.70;39.97;;;;;;;15.52;100.00;149938.44;5073247;28;20271;-58
2022/11/11 12:08:31;;;;;;;60.77;39.03;;;;;;;15.32;100.00;149887.66;5073200;28;20184;-58
2022/11/11 12:11:04;;;;;;;62.27;38.47;;;;;;;15.60;100.00;149957.47;5074096;28;20185;-58
2022/11/11 12:13:43;;;;;;;61.80;38.13;;;;;;;15.54;100.00;149944.75;5073917;28;20474;-59
2022/11/11 12:16:24;;;;;;;63.50;40.13;;;;;;;15.43;100.00;149915.53;5073090;28;20602;-58
2022/11/11 12:19:07;;;;;;;65.73;41.37;;;;;;;15.16;100.00;149847.00;5072420;28;20200;-59
2022/11/11 12:21:41;;;;;;;63.77;40.30;;;;;;;15.02;100.00;149814.03;5072856;28;20581;-58
2022/11/11 12:24:22;;;;;;;63.53;40.33;;;;;;;14.90;100.00;149783.59;5072598;28;20216;-60
2022/11/11 12:27:01;;;;;;;68.87;39.90;;;;;;;14.57;100.00;149701.16;5072657;28;20195;-58
2022/11/11 12:29:43;;;;;;;71.97;41.03;;;;;;;14.76;100.00;149746.84;5072342;28;20199;-59
2022/11/11 12:32:40;;;;;;;61.27;38.93;;;;;;;14.81;100.00;149759.53;5072579;28;20254;-59